sensor_id;sensor_type;location;lat;lon;timestamp;pressure;altitude;pressure_sealevel;temperature;humidity
24788;BME280;12883;52.662;5.196;2023-08-21T00:00:13;102324.72;;;20.25;100.00
24788;BME280;12883;52.662;5.196;2023-08-21T00:02:39;102299.59;;;18.09;100.00
24788;BME280;12883;52.662;5.196;2023-08-21T00:05:04;102281.31;;;17.67;100.00
24788;BME280;12883;52.662;5.196;2023-08-21T00:07:30;102282.97;;;17.55;100.00
24788;BME280;12883;52.662;5.196;2023-08-21T00:09:56;102271.81;;;17.32;100.00
24788;BME280;12883;52.662;5.196;2023-08-21T00:12:21;102272.66;;;17.26;100.00
24788;BME280;12883;52.662;5.196;2023-08-21T00:14:46;102266.88;;;17.16;100.00
24788;BME280;12883;52.662;5.196;2023-08-21T00:17:12;102274.53;;;17.26;100.00
24788;BME280;12883;52.662;5.196;2023-08-21T00:19:37;102270.38;;;17.17;100.00
24788;BME280;12883;52.662;5.196;2023-08-21T00:22:02;102272.47;;;17.21;100.00
24788;BME280;12883;52.662;5.196;2023-08-21T00:24:28;102267.72;;;17.36;100.00
24788;BME280;12883;52.662;5.196;2023-08-21T00:26:53;102268.97;;;17.14;100.00
24788;BME280;12883;52.662;5.196;2023-08-21T00:29:18;102238.81;;;16.93;100.00
24788;BME280;12883;52.662;5.196;2023-08-21T00:31:44;102200.22;;;16.61;100.00
24788;BME280;12883;52.662;5.196;2023-08-21T00:34:09;102275.13;;;17.02;100.00
24788;BME280;12883;52.662;5.196;2023-08-21T00:36:34;102272.84;;;16.92;100.00
24788;BME280;12883;52.662;5.196;2023-08-21T00:39:00;102268.31;;;16.73;100.00
24788;BME280;12883;52.662;5.196;2023-08-21T00:41:25;102269.94;;;16.74;100.00
24788;BME280;12883;52.662;5.196;2023-08-21T00:43:51;102266.03;;;16.77;100.00
24788;BME280;12883;52.662;5.196;2023-08-21T00:46:16;102292.06;;;17.35;100.00
24788;BME280;12883;52.662;5.196;2023-08-21T00:48:43;102275.59;;;18.58;100.00
24788;BME280;12883;52.662;5.196;2023-08-21T00:51:09;102258.09;;;19.36;100.00
24788;BME280;12883;52.662;5.196;2023-08-21T00:53:36;102318.41;;;20.31;100.00
24788;BME280;12883;52.662;5.196;2023-08-21T00:56:01;102334.03;;;21.06;100.00
24788;BME280;12883;52.662;5.196;2023-08-21T00:58:27;102311.44;;;21.30;100.00
24788;BME280;12883;52.662;5.196;2023-08-21T01:00:53;102346.56;;;19.01;100.00
24788;BME280;12883;52.662;5.196;2023-08-21T01:03:19;102318.09;;;17.41;100.00
24788;BME280;12883;52.662;5.196;2023-08-21T01:05:44;102296.38;;;16.90;100.00
24788;BME280;12883;52.662;5.196;2023-08-21T01:11:25;102205.69;;;16.21;100.00
24788;BME280;12883;52.662;5.196;2023-08-21T01:14:03;102276.28;;;16.54;100.00
24788;BME280;12883;52.662;5.196;2023-08-21T01:16:31;102255.31;;;16.23;100.00
24788;BME280;12883;52.662;5.196;2023-08-21T01:18:58;102220.25;;;16.05;100.00
24788;BME280;12883;52.662;5.196;2023-08-21T01:21:25;102272.28;;;16.37;100.00
24788;BME280;12883;52.662;5.196;2023-08-21T01:23:50;102264.31;;;16.56;100.00
24788;BME280;12883;52.662;5.196;2023-08-21T01:26:16;102258.31;;;16.41;100.00
24788;BME280;12883;52.662;5.196;2023-08-21T01:28:41;102230.44;;;16.36;100.00
24788;BME280;12883;52.662;5.196;2023-08-21T01:31:29;102276.09;;;16.55;100.00
24788;BME280;12883;52.662;5.196;2023-08-21T01:33:59;102275.88;;;16.63;100.00
24788;BME280;12883;52.662;5.196;2023-08-21T01:36:25;102284.13;;;16.49;100.00
24788;BME280;12883;52.662;5.196;2023-08-21T01:38:52;102263.91;;;16.46;100.00
24788;BME280;12883;52.662;5.196;2023-08-21T01:41:17;102275.88;;;16.63;100.00
24788;BME280;12883;52.662;5.196;2023-08-21T01:43:42;102278.53;;;16.50;100.00
24788;BME280;12883;52.662;5.196;2023-08-21T01:46:08;102239.13;;;16.44;100.00
24788;BME280;12883;52.662;5.196;2023-08-21T01:48:33;102252.31;;;17.95;100.00
24788;BME280;12883;52.662;5.196;2023-08-21T01:51:01;102280.47;;;19.05;100.00
24788;BME280;12883;52.662;5.196;2023-08-21T01:53:26;102337.91;;;20.15;100.00
24788;BME280;12883;52.662;5.196;2023-08-21T01:55:52;102327.72;;;20.53;100.00
24788;BME280;12883;52.662;5.196;2023-08-21T01:58:17;102343.66;;;21.02;100.00
24788;BME280;12883;52.662;5.196;2023-08-21T02:00:45;102346.75;;;18.62;100.00
24788;BME280;12883;52.662;5.196;2023-08-21T02:03:11;102327.53;;;17.04;100.00
24788;BME280;12883;52.662;5.196;2023-08-21T02:05:38;102298.78;;;16.66;100.00
24788;BME280;12883;52.662;5.196;2023-08-21T02:08:04;102193.38;;;15.86;100.00
24788;BME280;12883;52.662;5.196;2023-08-21T02:10:29;102298.94;;;16.51;100.00
24788;BME280;12883;52.662;5.196;2023-08-21T02:12:55;102290.47;;;16.41;100.00
24788;BME280;12883;52.662;5.196;2023-08-21T02:15:20;102294.41;;;16.45;100.00
24788;BME280;12883;52.662;5.196;2023-08-21T02:17:47;102292.72;;;16.44;100.00
24788;BME280;12883;52.662;5.196;2023-08-21T02:20:12;102288.63;;;16.42;100.00
24788;BME280;12883;52.662;5.196;2023-08-21T02:22:37;102255.06;;;16.05;100.00
24788;BME280;12883;52.662;5.196;2023-08-21T02:25:03;102286.91;;;16.28;100.00
24788;BME280;12883;52.662;5.196;2023-08-21T02:27:28;102284.28;;;16.41;100.00
24788;BME280;12883;52.662;5.196;2023-08-21T02:29:54;102255.78;;;16.33;100.00
24788;BME280;12883;52.662;5.196;2023-08-21T02:32:19;102281.63;;;16.47;100.00
24788;BME280;12883;52.662;5.196;2023-08-21T02:34:44;102278.72;;;16.42;100.00
24788;BME280;12883;52.662;5.196;2023-08-21T02:37:10;102279.13;;;16.39;100.00
24788;BME280;12883;52.662;5.196;2023-08-21T02:39:35;102281.34;;;16.36;100.00
24788;BME280;12883;52.662;5.196;2023-08-21T02:42:00;102280.28;;;16.30;100.00
24788;BME280;12883;52.662;5.196;2023-08-21T02:44:26;102280.28;;;16.30;100.00
24788;BME280;12883;52.662;5.196;2023-08-21T02:46:51;102304.84;;;17.13;100.00
24788;BME280;12883;52.662;5.196;2023-08-21T02:49:16;102297.63;;;18.42;100.00
24788;BME280;12883;52.662;5.196;2023-08-21T02:51:41;102309.63;;;19.39;100.00
24788;BME280;12883;52.662;5.196;2023-08-21T02:54:07;102309.63;;;20.00;100.00
24788;BME280;12883;52.662;5.196;2023-08-21T02:56:32;102333.25;;;20.69;100.00
24788;BME280;12883;52.662;5.196;2023-08-21T02:58:58;102301.97;;;20.80;100.00
24788;BME280;12883;52.662;5.196;2023-08-21T03:01:23;102328.78;;;17.80;100.00
24788;BME280;12883;52.662;5.196;2023-08-21T03:03:48;102305.00;;;16.79;100.00
24788;BME280;12883;52.662;5.196;2023-08-21T03:06:14;102291.13;;;16.56;100.00
24788;BME280;12883;52.662;5.196;2023-08-21T03:08:41;102264.94;;;16.45;100.00
24788;BME280;12883;52.662;5.196;2023-08-21T03:11:08;102269.69;;;16.50;100.00
24788;BME280;12883;52.662;5.196;2023-08-21T03:13:33;102259.72;;;16.37;100.00
24788;BME280;12883;52.662;5.196;2023-08-21T03:15:59;102269.03;;;16.41;100.00
24788;BME280;12883;52.662;5.196;2023-08-21T03:18:24;102213.38;;;15.90;100.00
24788;BME280;12883;52.662;5.196;2023-08-21T03:20:49;102264.84;;;16.32;100.00
24788;BME280;12883;52.662;5.196;2023-08-21T03:23:15;102197.56;;;15.95;100.00
24788;BME280;12883;52.662;5.196;2023-08-21T03:25:40;102272.25;;;16.30;100.00
24788;BME280;12883;52.662;5.196;2023-08-21T03:28:05;102272.47;;;16.29;100.00
24788;BME280;12883;52.662;5.196;2023-08-21T03:30:31;102261.34;;;16.25;100.00
24788;BME280;12883;52.662;5.196;2023-08-21T03:32:56;102268.16;;;16.28;100.00
24788;BME280;12883;52.662;5.196;2023-08-21T03:35:21;102257.63;;;16.26;100.00
24788;BME280;12883;52.662;5.196;2023-08-21T03:37:47;102261.34;;;16.25;100.00
24788;BME280;12883;52.662;5.196;2023-08-21T03:40:12;102250.44;;;16.33;100.00
24788;BME280;12883;52.662;5.196;2023-08-21T03:42:37;102240.31;;;16.29;100.00
24788;BME280;12883;52.662;5.196;2023-08-21T03:45:03;102244.22;;;16.26;100.00
24788;BME280;12883;52.662;5.196;2023-08-21T03:47:31;102273.28;;;17.54;100.00
24788;BME280;12883;52.662;5.196;2023-08-21T03:49:57;102280.91;;;18.71;100.00
24788;BME280;12883;52.662;5.196;2023-08-21T03:52:22;102293.06;;;19.60;100.00
24788;BME280;12883;52.662;5.196;2023-08-21T03:54:48;102309.59;;;20.24;100.00
24788;BME280;12883;52.662;5.196;2023-08-21T03:57:13;102320.13;;;20.73;100.00
24788;BME280;12883;52.662;5.196;2023-08-21T03:59:38;102305.38;;;20.75;100.00
24788;BME280;12883;52.662;5.196;2023-08-21T04:02:04;102307.31;;;17.34;100.00
24788;BME280;12883;52.662;5.196;2023-08-21T04:04:29;102279.56;;;16.49;100.00
24788;BME280;12883;52.662;5.196;2023-08-21T04:06:54;102283.16;;;16.22;100.00
24788;BME280;12883;52.662;5.196;2023-08-21T04:09:20;102255.25;;;16.04;100.00
24788;BME280;12883;52.662;5.196;2023-08-21T04:11:45;102268.66;;;16.10;100.00
24788;BME280;12883;52.662;5.196;2023-08-21T04:14:10;102260.63;;;16.10;100.00
24788;BME280;12883;52.662;5.196;2023-08-21T04:16:36;102263.31;;;16.10;100.00
24788;BME280;12883;52.662;5.196;2023-08-21T04:19:01;102248.06;;;16.04;100.00
24788;BME280;12883;52.662;5.196;2023-08-21T04:21:27;102246.00;;;16.06;100.00
24788;BME280;12883;52.662;5.196;2023-08-21T04:23:52;102254.03;;;16.06;100.00
24788;BME280;12883;52.662;5.196;2023-08-21T04:26:18;102254.84;;;16.07;100.00
24788;BME280;12883;52.662;5.196;2023-08-21T04:28:44;102254.28;;;16.11;100.00
24788;BME280;12883;52.662;5.196;2023-08-21T04:31:09;102257.56;;;16.13;100.00
24788;BME280;12883;52.662;5.196;2023-08-21T04:33:35;102255.75;;;16.20;100.00
24788;BME280;12883;52.662;5.196;2023-08-21T04:36:01;102260.25;;;16.13;100.00
24788;BME280;12883;52.662;5.196;2023-08-21T04:38:26;102249.72;;;16.05;100.00
24788;BME280;12883;52.662;5.196;2023-08-21T04:40:52;102195.97;;;15.66;100.00
24788;BME280;12883;52.662;5.196;2023-08-21T04:43:17;102255.25;;;16.04;100.00
24788;BME280;12883;52.662;5.196;2023-08-21T04:45:49;102279.44;;;16.23;100.00
24788;BME280;12883;52.662;5.196;2023-08-21T04:48:18;102276.13;;;17.66;100.00
24788;BME280;12883;52.662;5.196;2023-08-21T04:50:45;102286.66;;;18.81;100.00
24788;BME280;12883;52.662;5.196;2023-08-21T04:53:10;102295.34;;;19.63;100.00
24788;BME280;12883;52.662;5.196;2023-08-21T04:55:36;102287.66;;;20.03;100.00
24788;BME280;12883;52.662;5.196;2023-08-21T04:58:02;102315.69;;;20.67;100.00
24788;BME280;12883;52.662;5.196;2023-08-21T05:00:27;102309.38;;;18.85;100.00
24788;BME280;12883;52.662;5.196;2023-08-21T05:02:52;102281.31;;;17.02;100.00
24788;BME280;12883;52.662;5.196;2023-08-21T05:05:18;102275.50;;;16.73;100.00
24788;BME280;12883;52.662;5.196;2023-08-21T05:07:43;102232.34;;;16.48;100.00
24788;BME280;12883;52.662;5.196;2023-08-21T05:10:08;102264.97;;;16.71;100.00
24788;BME280;12883;52.662;5.196;2023-08-21T05:12:35;102225.53;;;16.39;100.00
24788;BME280;12883;52.662;5.196;2023-08-21T05:15:00;102262.28;;;16.71;100.00
24788;BME280;12883;52.662;5.196;2023-08-21T05:17:25;102266.44;;;16.80;100.00
24788;BME280;12883;52.662;5.196;2023-08-21T05:19:51;102266.22;;;16.75;100.00
24788;BME280;12883;52.662;5.196;2023-08-21T05:22:17;102268.50;;;16.78;100.00
24788;BME280;12883;52.662;5.196;2023-08-21T05:24:42;102266.88;;;16.84;100.00
24788;BME280;12883;52.662;5.196;2023-08-21T05:27:07;102265.03;;;16.91;100.00
24788;BME280;12883;52.662;5.196;2023-08-21T05:29:33;102262.94;;;16.99;100.00
24788;BME280;12883;52.662;5.196;2023-08-21T05:31:59;102126.13;;;16.21;100.00
24788;BME280;12883;52.662;5.196;2023-08-21T05:34:25;102217.16;;;16.81;100.00
24788;BME280;12883;52.662;5.196;2023-08-21T05:36:50;102274.50;;;17.00;100.00
24788;BME280;12883;52.662;5.196;2023-08-21T05:39:16;102252.84;;;17.01;100.00
24788;BME280;12883;52.662;5.196;2023-08-21T05:41:41;102263.59;;;17.14;100.00
24788;BME280;12883;52.662;5.196;2023-08-21T05:44:06;102268.94;;;17.27;100.00
24788;BME280;12883;52.662;5.196;2023-08-21T05:46:32;102285.19;;;17.91;100.00
24788;BME280;12883;52.662;5.196;2023-08-21T05:48:57;102261.44;;;19.00;100.00
24788;BME280;12883;52.662;5.196;2023-08-21T05:51:22;102315.06;;;20.18;100.00
24788;BME280;12883;52.662;5.196;2023-08-21T05:53:48;102301.13;;;20.68;100.00
24788;BME280;12883;52.662;5.196;2023-08-21T05:56:13;102336.91;;;21.34;100.00
24788;BME280;12883;52.662;5.196;2023-08-21T05:58:38;102344.81;;;21.70;100.00
24788;BME280;12883;52.662;5.196;2023-08-21T06:01:04;102339.81;;;19.48;100.00
24788;BME280;12883;52.662;5.196;2023-08-21T06:03:29;102307.53;;;18.48;100.00
24788;BME280;12883;52.662;5.196;2023-08-21T06:05:54;102293.34;;;18.22;100.00
24788;BME280;12883;52.662;5.196;2023-08-21T06:08:20;102287.38;;;18.13;100.00
24788;BME280;12883;52.662;5.196;2023-08-21T06:10:45;102278.63;;;18.24;100.00
24788;BME280;12883;52.662;5.196;2023-08-21T06:13:15;102277.19;;;18.35;100.00
24788;BME280;12883;52.662;5.196;2023-08-21T06:15:43;102272.63;;;18.35;100.00
24788;BME280;12883;52.662;5.196;2023-08-21T06:18:08;102263.50;;;18.43;100.00
24788;BME280;12883;52.662;5.196;2023-08-21T06:20:34;102216.22;;;18.22;100.00
24788;BME280;12883;52.662;5.196;2023-08-21T06:22:59;102267.66;;;18.70;100.00
24788;BME280;12883;52.662;5.196;2023-08-21T06:25:24;102263.91;;;18.77;100.00
24788;BME280;12883;52.662;5.196;2023-08-21T06:27:50;102270.28;;;18.83;100.00
24788;BME280;12883;52.662;5.196;2023-08-21T06:30:15;102271.03;;;18.96;100.00
24788;BME280;12883;52.662;5.196;2023-08-21T06:32:42;102270.69;;;19.11;100.00
24788;BME280;12883;52.662;5.196;2023-08-21T06:35:08;102272.91;;;19.20;100.00
24788;BME280;12883;52.662;5.196;2023-08-21T06:37:33;102275.59;;;19.45;100.00
24788;BME280;12883;52.662;5.196;2023-08-21T06:39:58;102269.16;;;19.46;100.00
24788;BME280;12883;52.662;5.196;2023-08-21T06:42:24;102211.63;;;19.22;100.00
24788;BME280;12883;52.662;5.196;2023-08-21T06:44:49;102276.41;;;19.70;100.00
24788;BME280;12883;52.662;5.196;2023-08-21T06:47:14;102280.69;;;20.60;100.00
24788;BME280;12883;52.662;5.196;2023-08-21T06:49:40;102321.56;;;21.80;100.00
24788;BME280;12883;52.662;5.196;2023-08-21T06:52:05;102339.69;;;22.54;100.00
24788;BME280;12883;52.662;5.196;2023-08-21T06:54:30;102319.06;;;22.81;100.00
24788;BME280;12883;52.662;5.196;2023-08-21T06:56:56;102362.38;;;23.37;100.00
24788;BME280;12883;52.662;5.196;2023-08-21T06:59:21;102361.97;;;23.61;100.00
24788;BME280;12883;52.662;5.196;2023-08-21T07:01:46;102335.13;;;20.87;100.00
24788;BME280;12883;52.662;5.196;2023-08-21T07:04:12;102317.53;;;20.37;100.00
24788;BME280;12883;52.662;5.196;2023-08-21T07:06:39;102313.44;;;20.17;100.00
24788;BME280;12883;52.662;5.196;2023-08-21T07:09:04;102259.56;;;19.92;100.00
24788;BME280;12883;52.662;5.196;2023-08-21T07:11:29;102319.78;;;20.40;100.00
24788;BME280;12883;52.662;5.196;2023-08-21T07:13:55;102317.53;;;20.37;100.00
24788;BME280;12883;52.662;5.196;2023-08-21T07:16:20;102310.00;;;20.39;100.00
24788;BME280;12883;52.662;5.196;2023-08-21T07:18:45;102298.63;;;20.37;100.00
24788;BME280;12883;52.662;5.196;2023-08-21T07:21:11;102317.34;;;20.50;100.00
24788;BME280;12883;52.662;5.196;2023-08-21T07:23:36;102319.28;;;20.61;100.00
24788;BME280;12883;52.662;5.196;2023-08-21T07:26:01;102322.41;;;20.76;100.00
24788;BME280;12883;52.662;5.196;2023-08-21T07:28:28;102269.63;;;20.51;100.00
24788;BME280;12883;52.662;5.196;2023-08-21T07:30:55;102318.66;;;20.77;100.00
24788;BME280;12883;52.662;5.196;2023-08-21T07:33:21;102265.78;;;20.58;100.00
24788;BME280;12883;52.662;5.196;2023-08-21T07:35:47;102324.03;;;20.95;100.00
24788;BME280;12883;52.662;5.196;2023-08-21T07:38:12;102326.25;;;20.98;100.00
24788;BME280;12883;52.662;5.196;2023-08-21T07:40:37;102327.31;;;20.97;100.00
24788;BME280;12883;52.662;5.196;2023-08-21T07:43:03;102257.44;;;20.48;100.00
24788;BME280;12883;52.662;5.196;2023-08-21T07:45:28;102297.78;;;20.84;100.00
24788;BME280;12883;52.662;5.196;2023-08-21T07:47:53;102359.06;;;22.62;100.00
24788;BME280;12883;52.662;5.196;2023-08-21T07:50:19;102389.88;;;23.62;100.00
24788;BME280;12883;52.662;5.196;2023-08-21T07:52:44;102410.16;;;24.25;100.00
24788;BME280;12883;52.662;5.196;2023-08-21T07:55:10;102414.25;;;24.66;100.00
24788;BME280;12883;52.662;5.196;2023-08-21T07:57:35;102425.16;;;24.92;100.00
24788;BME280;12883;52.662;5.196;2023-08-21T08:00:01;102352.50;;;23.64;100.00
24788;BME280;12883;52.662;5.196;2023-08-21T08:02:26;102373.03;;;22.08;100.00
24788;BME280;12883;52.662;5.196;2023-08-21T08:04:52;102354.97;;;21.74;100.00
24788;BME280;12883;52.662;5.196;2023-08-21T08:07:17;102358.66;;;21.62;100.00
24788;BME280;12883;52.662;5.196;2023-08-21T08:09:43;102338.69;;;21.51;100.00
24788;BME280;12883;52.662;5.196;2023-08-21T08:12:08;102348.19;;;21.65;100.00
24788;BME280;12883;52.662;5.196;2023-08-21T08:14:34;102358.66;;;21.62;100.00
24788;BME280;12883;52.662;5.196;2023-08-21T08:17:00;102355.50;;;21.65;100.00
24788;BME280;12883;52.662;5.196;2023-08-21T08:19:25;102346.38;;;21.66;100.00
24788;BME280;12883;52.662;5.196;2023-08-21T08:21:51;102348.84;;;21.79;100.00
24788;BME280;12883;52.662;5.196;2023-08-21T08:24:16;102357.88;;;21.96;100.00
24788;BME280;12883;52.662;5.196;2023-08-21T08:26:41;102349.53;;;21.97;100.00
24788;BME280;12883;52.662;5.196;2023-08-21T08:29:08;102345.63;;;22.05;100.00
24788;BME280;12883;52.662;5.196;2023-08-21T08:31:34;102349.31;;;21.99;100.00
24788;BME280;12883;52.662;5.196;2023-08-21T08:33:59;102347.03;;;22.19;100.00
24788;BME280;12883;52.662;5.196;2023-08-21T08:36:24;102349.75;;;22.07;100.00
24788;BME280;12883;52.662;5.196;2023-08-21T08:38:50;102352.22;;;22.09;100.00
24788;BME280;12883;52.662;5.196;2023-08-21T08:41:24;102342.66;;;22.18;100.00
24788;BME280;12883;52.662;5.196;2023-08-21T08:43:50;102350.91;;;22.23;100.00
24788;BME280;12883;52.662;5.196;2023-08-21T08:46:17;102365.03;;;22.76;100.00
24788;BME280;12883;52.662;5.196;2023-08-21T08:48:43;102393.41;;;24.12;100.00
24788;BME280;12883;52.662;5.196;2023-08-21T08:51:08;102421.94;;;24.95;100.00
24788;BME280;12883;52.662;5.196;2023-08-21T08:53:36;102421.59;;;25.40;100.00
24788;BME280;12883;52.662;5.196;2023-08-21T08:56:01;102444.81;;;25.79;100.00
24788;BME280;12883;52.662;5.196;2023-08-21T08:58:27;102437.88;;;25.98;100.00
24788;BME280;12883;52.662;5.196;2023-08-21T09:00:52;102403.66;;;23.88;100.00
24788;BME280;12883;52.662;5.196;2023-08-21T09:03:17;102377.84;;;22.80;100.00
24788;BME280;12883;52.662;5.196;2023-08-21T09:05:43;102373.19;;;22.64;100.00
24788;BME280;12883;52.662;5.196;2023-08-21T09:10:36;102332.53;;;22.48;100.00
24788;BME280;12883;52.662;5.196;2023-08-21T09:13:09;102353.34;;;22.75;100.00
24788;BME280;12883;52.662;5.196;2023-08-21T09:15:35;102319.34;;;22.51;100.00
24788;BME280;12883;52.662;5.196;2023-08-21T09:18:01;102328.13;;;22.86;100.00
24788;BME280;12883;52.662;5.196;2023-08-21T09:20:27;102343.38;;;22.76;100.00
24788;BME280;12883;52.662;5.196;2023-08-21T09:22:54;102339.97;;;22.69;100.00
24788;BME280;12883;52.662;5.196;2023-08-21T09:25:23;102358.53;;;23.05;100.00
24788;BME280;12883;52.662;5.196;2023-08-21T09:27:51;102361.88;;;22.95;100.00
24788;BME280;12883;52.662;5.196;2023-08-21T09:30:17;102351.28;;;22.94;100.00
24788;BME280;12883;52.662;5.196;2023-08-21T09:32:59;102341.88;;;23.13;100.00
24788;BME280;12883;52.662;5.196;2023-08-21T09:35:32;102339.53;;;23.16;100.00
24788;BME280;12883;52.662;5.196;2023-08-21T09:37:58;102337.19;;;23.08;100.00
24788;BME280;12883;52.662;5.196;2023-08-21T09:40:24;102348.59;;;23.10;100.00
24788;BME280;12883;52.662;5.196;2023-08-21T09:42:55;102353.78;;;23.12;100.00
24788;BME280;12883;52.662;5.196;2023-08-21T09:45:25;102385.91;;;23.20;100.00
24788;BME280;12883;52.662;5.196;2023-08-21T09:47:54;102394.75;;;24.69;100.00
24788;BME280;12883;52.662;5.196;2023-08-21T09:50:19;102400.22;;;25.53;100.00
24788;BME280;12883;52.662;5.196;2023-08-21T09:52:45;102424.06;;;26.09;100.00
24788;BME280;12883;52.662;5.196;2023-08-21T09:55:13;102400.56;;;26.35;100.00
24788;BME280;12883;52.662;5.196;2023-08-21T09:57:40;102407.19;;;26.54;100.00
24788;BME280;12883;52.662;5.196;2023-08-21T10:00:09;102390.25;;;25.59;100.00
24788;BME280;12883;52.662;5.196;2023-08-21T10:02:45;102350.94;;;24.01;100.00
24788;BME280;12883;52.662;5.196;2023-08-21T10:05:13;102267.00;;;23.56;100.00
24788;BME280;12883;52.662;5.196;2023-08-21T10:07:40;102311.13;;;23.52;100.00
24788;BME280;12883;52.662;5.196;2023-08-21T10:10:08;102286.91;;;23.29;100.00
24788;BME280;12883;52.662;5.196;2023-08-21T10:12:34;102342.31;;;23.71;100.00
24788;BME280;12883;52.662;5.196;2023-08-21T10:14:59;102346.91;;;23.70;100.00
24788;BME280;12883;52.662;5.196;2023-08-21T10:17:25;102344.84;;;23.77;100.00
24788;BME280;12883;52.662;5.196;2023-08-21T10:19:51;102351.16;;;23.83;100.00
24788;BME280;12883;52.662;5.196;2023-08-21T10:22:38;102356.03;;;23.81;100.00
24788;BME280;12883;52.662;5.196;2023-08-21T10:25:14;102348.38;;;23.94;100.00
24788;BME280;12883;52.662;5.196;2023-08-21T10:27:41;102352.50;;;23.97;100.00
24788;BME280;12883;52.662;5.196;2023-08-21T10:30:15;102355.03;;;24.03;100.00
24788;BME280;12883;52.662;5.196;2023-08-21T10:32:47;102360.44;;;24.20;100.00
24788;BME280;12883;52.662;5.196;2023-08-21T10:35:25;102368.94;;;24.07;100.00
24788;BME280;12883;52.662;5.196;2023-08-21T10:38:19;102360.44;;;24.20;100.00
24788;BME280;12883;52.662;5.196;2023-08-21T10:41:05;102372.13;;;24.04;100.00
24788;BME280;12883;52.662;5.196;2023-08-21T10:43:45;102365.56;;;24.21;100.00
24788;BME280;12883;52.662;5.196;2023-08-21T10:46:11;102386.00;;;24.67;100.00
24788;BME280;12883;52.662;5.196;2023-08-21T10:48:37;102377.94;;;25.88;100.00
24788;BME280;12883;52.662;5.196;2023-08-21T10:51:04;102403.19;;;26.71;100.00
24788;BME280;12883;52.662;5.196;2023-08-21T10:53:31;102408.25;;;27.19;100.00
24788;BME280;12883;52.662;5.196;2023-08-21T10:55:59;102420.00;;;27.39;100.00
24788;BME280;12883;52.662;5.196;2023-08-21T10:58:25;102423.00;;;27.53;100.00
24788;BME280;12883;52.662;5.196;2023-08-21T11:00:58;102391.16;;;25.43;100.00
24788;BME280;12883;52.662;5.196;2023-08-21T11:03:23;102379.72;;;24.88;100.00
24788;BME280;12883;52.662;5.196;2023-08-21T11:06:06;102365.66;;;24.69;100.00
24788;BME280;12883;52.662;5.196;2023-08-21T11:08:32;102364.41;;;24.77;100.00
24788;BME280;12883;52.662;5.196;2023-08-21T11:10:59;102372.63;;;24.82;100.00
24788;BME280;12883;52.662;5.196;2023-08-21T11:13:24;102363.88;;;24.80;100.00
24788;BME280;12883;52.662;5.196;2023-08-21T11:16:00;102367.59;;;24.69;100.00
24788;BME280;12883;52.662;5.196;2023-08-21T11:18:30;102341.28;;;24.53;100.00
24788;BME280;12883;52.662;5.196;2023-08-21T11:21:09;102354.78;;;24.91;100.00
24788;BME280;12883;52.662;5.196;2023-08-21T11:23:37;102353.22;;;25.00;100.00
24788;BME280;12883;52.662;5.196;2023-08-21T11:26:03;102357.69;;;25.11;100.00
24788;BME280;12883;52.662;5.196;2023-08-21T11:28:29;102368.28;;;25.12;100.00
24788;BME280;12883;52.662;5.196;2023-08-21T11:30:56;102359.25;;;25.28;100.00
24788;BME280;12883;52.662;5.196;2023-08-21T11:33:23;102364.78;;;25.12;100.00
24788;BME280;12883;52.662;5.196;2023-08-21T11:35:49;102371.38;;;25.21;100.00
24788;BME280;12883;52.662;5.196;2023-08-21T11:38:17;102385.75;;;24.90;100.00
24788;BME280;12883;52.662;5.196;2023-08-21T11:40:51;102350.81;;;24.55;100.00
24788;BME280;12883;52.662;5.196;2023-08-21T11:43:17;102320.25;;;24.43;100.00
24788;BME280;12883;52.662;5.196;2023-08-21T11:45:47;102403.44;;;24.92;100.00
24788;BME280;12883;52.662;5.196;2023-08-21T11:48:13;102355.47;;;26.07;100.00
24788;BME280;12883;52.662;5.196;2023-08-21T11:50:39;102412.88;;;27.23;100.00
24788;BME280;12883;52.662;5.196;2023-08-21T11:53:04;102408.03;;;27.65;95.91
24788;BME280;12883;52.662;5.196;2023-08-21T11:55:31;102412.94;;;27.88;92.30
24788;BME280;12883;52.662;5.196;2023-08-21T11:57:56;102423.56;;;28.05;90.27
24788;BME280;12883;52.662;5.196;2023-08-21T12:00:28;102359.91;;;26.18;95.31
24788;BME280;12883;52.662;5.196;2023-08-21T12:02:59;102394.28;;;25.25;100.00
24788;BME280;12883;52.662;5.196;2023-08-21T12:05:27;102390.66;;;25.19;100.00
24788;BME280;12883;52.662;5.196;2023-08-21T12:07:52;102389.38;;;25.00;100.00
24788;BME280;12883;52.662;5.196;2023-08-21T12:10:25;102380.50;;;24.83;100.00
24788;BME280;12883;52.662;5.196;2023-08-21T12:12:51;102392.97;;;25.06;100.00
24788;BME280;12883;52.662;5.196;2023-08-21T12:15:16;102398.47;;;25.11;100.00
24788;BME280;12883;52.662;5.196;2023-08-21T12:17:42;102396.06;;;25.14;100.00
24788;BME280;12883;52.662;5.196;2023-08-21T12:20:08;102388.97;;;25.13;100.00
24788;BME280;12883;52.662;5.196;2023-08-21T12:22:36;102360.78;;;24.93;100.00
24788;BME280;12883;52.662;5.196;2023-08-21T12:25:02;102388.69;;;25.10;100.00
24788;BME280;12883;52.662;5.196;2023-08-21T12:27:29;102380.00;;;25.13;100.00
24788;BME280;12883;52.662;5.196;2023-08-21T12:29:54;102382.97;;;25.11;100.00
24788;BME280;12883;52.662;5.196;2023-08-21T12:32:19;102355.44;;;25.03;100.00
24788;BME280;12883;52.662;5.196;2023-08-21T12:34:45;102384.41;;;25.19;100.00
24788;BME280;12883;52.662;5.196;2023-08-21T12:37:10;102380.84;;;25.18;100.00
24788;BME280;12883;52.662;5.196;2023-08-21T12:39:35;102379.06;;;25.24;100.00
24788;BME280;12883;52.662;5.196;2023-08-21T12:42:01;102352.72;;;25.03;100.00